Time;durP1;ratioP1;P1;durP2;ratioP2;P2;SDS_P1;SDS_P2;PMS_P1;PMS_P2;Temp;Humidity;BMP_temperature;BMP_pressure;BME280_temperature;BME280_humidity;BME280_pressure;Samples;Min_cycle;Max_cycle;Signal;HPM_P1;HPM_P2
2023/01/29 00:46:53;;;;;;;7.70;6.20;;;;;;;-0.39;100.00;100321.22;6100636;23;20681;-84
2023/01/29 00:49:55;;;;;;;8.23;6.30;;;;;;;-0.56;100.00;100293.75;6100048;23;20192;-84
2023/01/29 00:52:58;;;;;;;7.57;6.23;;;;;;;-0.71;100.00;100292.41;6125302;23;20172;-84
2023/01/29 00:56:21;;;;;;;7.43;6.60;;;;;;;-0.67;100.00;100293.81;6139340;23;20266;-83
2023/01/29 01:05:37;;;;;;;7.63;6.53;;;;;;;-0.72;100.00;100301.28;6129217;23;20220;-84
2023/01/29 05:09:22;;;;;;;7.47;5.07;;;;;;;-1.36;100.00;100338.25;6201933;23;20229;-89
2023/01/29 05:11:58;;;;;;;6.03;5.10;;;;;;;-1.50;100.00;100349.06;6198638;23;20292;-90
2023/01/29 05:14:30;;;;;;;5.97;4.67;;;;;;;-1.37;100.00;100349.72;6189325;23;20194;-87
2023/01/29 05:17:04;;;;;;;4.70;4.20;;;;;;;-1.43;100.00;100348.41;6164973;23;20266;-88
2023/01/29 05:19:33;;;;;;;5.30;4.13;;;;;;;-1.37;100.00;100340.03;6138777;23;20214;-90
2023/01/29 05:22:05;;;;;;;6.90;5.03;;;;;;;-1.47;100.00;100336.50;6158047;23;20206;-87
2023/01/29 05:24:41;;;;;;;6.30;4.97;;;;;;;-1.61;100.00;100333.31;6197585;23;20643;-90
2023/01/29 05:30:16;;;;;;;5.23;4.10;;;;;;;-1.48;100.00;100342.72;6168572;23;20545;-91
2023/01/29 05:32:46;;;;;;;4.87;4.23;;;;;;;-1.57;100.00;100332.94;6124761;23;20228;-89
2023/01/29 05:35:15;;;;;;;4.73;4.23;;;;;;;-1.53;100.00;100334.34;6193852;23;20225;-90
2023/01/29 05:37:45;;;;;;;4.87;3.80;;;;;;;-1.52;100.00;100332.56;6193009;23;20293;-88
2023/01/29 05:40:12;;;;;;;4.87;4.37;;;;;;;-1.55;100.00;100319.69;6167562;23;20221;-89
2023/01/29 05:42:43;;;;;;;4.87;4.30;;;;;;;-1.74;100.00;100335.28;6192924;23;20232;-88
2023/01/29 05:45:12;;;;;;;5.03;4.10;;;;;;;-1.68;100.00;100332.16;6168730;23;20229;-90
2023/01/29 05:47:46;;;;;;;6.17;4.97;;;;;;;-1.84;100.00;100343.06;6174011;23;20205;-89
2023/01/29 05:50:16;;;;;;;6.07;4.90;;;;;;;-1.73;100.00;100350.09;6161822;23;20683;-90
2023/01/29 05:52:48;;;;;;;5.23;4.50;;;;;;;-1.72;100.00;100344.69;6187526;23;20201;-88
2023/01/29 05:55:18;;;;;;;7.10;5.03;;;;;;;-1.92;100.00;100334.97;6141344;23;20234;-90
2023/01/29 05:57:47;;;;;;;6.73;4.73;;;;;;;-1.99;100.00;100344.28;6139683;23;20671;-90
2023/01/29 06:00:18;;;;;;;5.63;4.73;;;;;;;-1.93;100.00;100349.91;6137672;23;20210;-91
2023/01/29 06:02:50;;;;;;;6.07;4.60;;;;;;;-1.94;100.00;100344.75;6164631;23;20221;-89
2023/01/29 06:05:22;;;;;;;6.10;4.70;;;;;;;-1.95;100.00;100341.28;6139708;23;20228;-90
2023/01/29 06:07:51;;;;;;;5.13;4.43;;;;;;;-1.95;100.00;100348.34;6163307;23;20212;-88
2023/01/29 06:10:21;;;;;;;5.60;4.33;;;;;;;-1.98;100.00;100331.03;6181242;23;20214;-89
2023/01/29 06:12:51;;;;;;;5.60;5.00;;;;;;;-1.93;100.00;100336.78;6162635;23;20210;-89
2023/01/29 06:15:20;;;;;;;5.13;4.43;;;;;;;-1.96;100.00;100337.00;6188750;23;20225;-89
2023/01/29 06:17:49;;;;;;;5.53;4.37;;;;;;;-2.26;100.00;100324.53;6163703;23;20679;-89
2023/01/29 06:20:19;;;;;;;5.63;4.40;;;;;;;-2.17;100.00;100327.38;6162286;23;20210;-89
2023/01/29 06:22:51;;;;;;;6.13;4.70;;;;;;;-2.20;100.00;100328.47;6191302;23;20214;-89
2023/01/29 06:25:32;;;;;;;5.90;4.80;;;;;;;-2.25;100.00;100328.84;6197230;23;20240;-89
2023/01/29 06:28:09;;;;;;;6.80;4.87;;;;;;;-2.18;100.00;100323.91;6201817;23;20218;-89
2023/01/29 06:30:54;;;;;;;5.73;4.30;;;;;;;-2.25;100.00;100307.00;6175049;23;20216;-89
2023/01/29 06:33:48;;;;;;;6.37;4.70;;;;;;;-2.20;100.00;100323.22;6196166;23;20206;-90
2023/01/29 06:36:31;;;;;;;6.43;5.03;;;;;;;-2.19;100.00;100324.06;6153693;23;20198;-90
2023/01/29 06:39:06;;;;;;;6.43;5.10;;;;;;;-2.41;100.00;100317.84;6192804;23;20209;-90
2023/01/29 06:47:52;;;;;;;5.73;4.20;;;;;;;-2.18;100.00;100323.91;6189442;23;20182;-85
2023/01/29 06:50:23;;;;;;;4.93;3.97;;;;;;;-2.15;100.00;100328.09;6151849;23;20233;-87
2023/01/29 06:52:53;;;;;;;6.43;5.03;;;;;;;-2.20;100.00;100344.22;6119990;23;20213;-85
2023/01/29 06:55:21;;;;;;;6.47;4.80;;;;;;;-2.19;100.00;100348.50;6142731;23;20215;-87
2023/01/29 06:57:49;;;;;;;6.57;4.57;;;;;;;-2.09;100.00;100354.69;6110170;23;20210;-88
2023/01/29 07:00:17;;;;;;;5.23;4.27;;;;;;;-2.14;100.00;100348.13;6138276;23;20206;-88
2023/01/29 07:02:48;;;;;;;5.43;4.60;;;;;;;-2.08;100.00;100350.28;6114018;23;20202;-83
2023/01/29 07:05:16;;;;;;;9.57;6.50;;;;;;;-1.91;100.00;100355.00;6138330;23;20214;-90
2023/01/29 07:07:44;;;;;;;14.83;12.33;;;;;;;-2.13;100.00;100345.38;6156420;23;20230;-93
2023/01/29 07:10:11;;;;;;;7.73;5.03;;;;;;;-2.11;100.00;100342.66;6106430;23;20276;-91
2023/01/29 07:12:38;;;;;;;6.13;4.80;;;;;;;-2.07;100.00;100352.78;6158329;23;20667;-87
2023/01/29 07:15:08;;;;;;;6.07;4.73;;;;;;;-1.99;100.00;100350.38;6136336;23;20652;-92
2023/01/29 07:17:35;;;;;;;6.60;5.37;;;;;;;-2.07;100.00;100350.16;6134543;23;20222;-91
2023/01/29 07:20:05;;;;;;;7.07;5.80;;;;;;;-2.12;100.00;100357.56;6148691;23;20214;-81
2023/01/29 07:22:32;;;;;;;6.27;5.50;;;;;;;-2.06;100.00;100349.22;6150671;23;20214;-83
2023/01/29 07:24:59;;;;;;;6.80;5.00;;;;;;;-1.96;100.00;100350.13;6149588;23;20234;-82
2023/01/29 07:27:27;;;;;;;10.30;6.33;;;;;;;-1.98;100.00;100340.72;6126569;23;20203;-82
2023/01/29 07:29:54;;;;;;;7.17;5.83;;;;;;;-1.90;100.00;100346.19;6136303;23;20718;-82
2023/01/29 07:32:21;;;;;;;8.10;6.10;;;;;;;-1.75;100.00;100347.59;6173414;23;20210;-82
2023/01/29 07:34:49;;;;;;;6.87;5.73;;;;;;;-1.82;100.00;100351.69;6152585;23;20193;-82
2023/01/29 07:37:16;;;;;;;7.67;5.80;;;;;;;-1.97;100.00;100343.22;6130730;23;20210;-82
2023/01/29 07:44:37;;;;;;;6.43;5.63;;;;;;;-1.97;100.00;100347.63;6098982;23;20222;-84
2023/01/29 07:47:10;;;;;;;6.70;4.87;;;;;;;-2.05;100.00;100342.97;6072714;23;20243;-83
2023/01/29 07:49:44;;;;;;;6.13;5.10;;;;;;;-1.91;100.00;100350.59;6105893;23;20234;-86
2023/01/29 07:52:17;;;;;;;5.47;4.53;;;;;;;-1.84;100.00;100345.69;6117828;23;20211;-83
2023/01/29 07:55:00;;;;;;;6.83;5.70;;;;;;;-1.92;100.00;100341.06;6113652;23;20207;-83
2023/01/29 07:57:43;;;;;;;5.90;5.00;;;;;;;-1.83;100.00;100340.34;6107222;23;20150;-83
2023/01/29 08:00:14;;;;;;;6.23;5.07;;;;;;;-1.82;100.00;100341.97;6170731;23;20171;-83
2023/01/29 08:03:02;;;;;;;5.63;4.90;;;;;;;-1.88;100.00;100347.75;6154951;23;20226;-83
2023/01/29 08:05:43;;;;;;;7.63;5.87;;;;;;;-1.89;100.00;100348.69;6155563;23;20179;-83
2023/01/29 08:08:19;;;;;;;5.67;5.17;;;;;;;-1.71;100.00;100358.66;6178576;23;20194;-83
2023/01/29 08:10:53;;;;;;;5.57;4.83;;;;;;;-1.77;100.00;100352.94;6178395;23;20212;-83
2023/01/29 08:13:26;;;;;;;5.37;4.70;;;;;;;-1.95;100.00;100353.59;6261969;23;20220;-86
2023/01/29 08:16:07;;;;;;;6.63;5.40;;;;;;;-1.90;100.00;100354.91;6227232;23;20207;-83
2023/01/29 08:18:46;;;;;;;6.13;5.50;;;;;;;-1.62;100.00;100355.28;6238292;23;20217;-83
2023/01/29 08:21:15;;;;;;;8.10;5.93;;;;;;;-1.70;100.00;100342.78;6210329;23;20213;-81
2023/01/29 08:23:48;;;;;;;6.47;5.40;;;;;;;-1.69;100.00;100356.75;6239239;23;20205;-83
2023/01/29 08:26:21;;;;;;;5.97;5.37;;;;;;;-1.53;100.00;100350.13;6213065;23;20217;-83
2023/01/29 08:28:54;;;;;;;7.30;5.80;;;;;;;-1.54;100.00;100352.91;6238462;23;20207;-83
2023/01/29 08:31:29;;;;;;;6.70;6.07;;;;;;;-1.52;100.00;100348.34;6211945;23;20217;-83
2023/01/29 08:34:04;;;;;;;6.83;6.13;;;;;;;-1.54;100.00;100343.19;6204212;23;20209;-83
2023/01/29 08:36:37;;;;;;;6.97;5.57;;;;;;;-1.45;100.00;100349.53;6237778;23;20186;-82
2023/01/29 08:39:10;;;;;;;6.20;5.57;;;;;;;-1.35;100.00;100348.63;6213875;23;20213;-83
2023/01/29 08:41:42;;;;;;;6.70;5.93;;;;;;;-1.44;100.00;100340.66;6230210;23;20260;-92
2023/01/29 08:44:14;;;;;;;6.80;5.70;;;;;;;-1.47;100.00;100346.16;6197539;23;20205;-88
2023/01/29 08:46:53;;;;;;;6.53;5.63;;;;;;;-1.29;100.00;100356.97;6223558;23;20245;-82
2023/01/29 08:54:06;;;;;;;8.83;5.93;;;;;;;-1.45;100.00;100368.75;6187749;23;20244;-87
2023/01/29 08:56:33;;;;;;;6.83;5.90;;;;;;;-1.36;100.00;100381.16;6170742;23;20216;-84
2023/01/29 08:59:00;;;;;;;6.97;5.40;;;;;;;-1.74;100.00;100382.56;6143511;23;20221;-90
2023/01/29 09:01:32;;;;;;;6.43;5.37;;;;;;;-1.56;100.00;100386.34;6163572;23;20216;-87
2023/01/29 09:04:01;;;;;;;8.53;5.87;;;;;;;-1.39;100.00;100372.66;6173797;23;20214;-82
2023/01/29 09:06:30;;;;;;;7.17;6.00;;;;;;;-1.67;100.00;100383.72;6208071;23;20190;-89
2023/01/29 09:09:00;;;;;;;8.03;5.93;;;;;;;-1.31;100.00;100379.94;6172189;23;20698;-84
2023/01/29 09:11:30;;;;;;;9.73;7.03;;;;;;;-1.30;100.00;100376.31;6180156;23;20166;-89
2023/01/29 09:14:00;;;;;;;6.40;5.50;;;;;;;-1.53;100.00;100379.03;6169595;23;20155;-92
2023/01/29 09:16:29;;;;;;;12.47;9.40;;;;;;;-1.56;100.00;100378.47;6192184;23;20162;-91
2023/01/29 09:19:00;;;;;;;6.67;5.50;;;;;;;-1.93;100.00;100370.91;6165615;23;20643;-91
2023/01/29 09:21:28;;;;;;;11.30;6.53;;;;;;;-1.72;100.00;100385.91;6162474;23;20212;-87
2023/01/29 09:23:56;;;;;;;13.60;9.50;;;;;;;-1.58;100.00;100390.88;6187281;23;20213;-87
2023/01/29 09:26:24;;;;;;;11.07;8.90;;;;;;;-1.42;100.00;100372.91;6146582;23;20208;-87
2023/01/29 09:28:53;;;;;;;7.47;5.83;;;;;;;-1.56;100.00;100373.19;6195246;23;20217;-87
2023/01/29 09:31:22;;;;;;;15.37;10.33;;;;;;;-1.25;100.00;100382.88;6186279;23;20230;-91
2023/01/29 09:33:52;;;;;;;10.70;8.20;;;;;;;-1.35;100.00;100368.81;6162732;23;20206;-89
2023/01/29 09:36:24;;;;;;;8.87;6.80;;;;;;;-1.15;100.00;100383.78;6172301;23;20224;-85
2023/01/29 09:38:53;;;;;;;9.20;6.80;;;;;;;-1.00;100.00;100382.53;6164385;23;20666;-92
2023/01/29 09:41:40;;;;;;;16.63;11.57;;;;;;;-0.63;100.00;100384.69;6192684;23;20289;-85
2023/01/29 09:44:32;;;;;;;10.23;8.30;;;;;;;-0.89;100.00;100387.72;6180803;23;20249;-82
2023/01/29 09:47:04;;;;;;;10.80;6.90;;;;;;;-0.63;100.00;100384.69;6183596;23;20229;-82
2023/01/29 09:49:40;;;;;;;17.90;11.77;;;;;;;-0.91;100.00;100381.75;6183046;23;20186;-84
2023/01/29 09:52:25;;;;;;;14.00;9.40;;;;;;;-0.83;100.00;100391.63;6173280;23;20264;-82
2023/01/29 09:54:59;;;;;;;18.27;11.30;;;;;;;-0.98;100.00;100385.84;6138859;23;20206;-88
2023/01/29 09:57:55;;;;;;;20.23;12.97;;;;;;;-0.86;100.00;100391.06;6138550;23;20206;-85
2023/01/29 10:00:27;;;;;;;14.87;11.03;;;;;;;-0.52;100.00;100387.25;6202936;23;20202;-83
2023/01/29 10:02:57;;;;;;;9.53;7.27;;;;;;;-0.66;100.00;100398.97;6168287;23;20219;-82
2023/01/29 10:05:52;;;;;;;8.13;6.93;;;;;;;-0.73;100.00;100395.16;6204410;23;20206;-86
2023/01/29 10:08:40;;;;;;;7.77;6.10;;;;;;;-0.69;100.00;100370.25;6203497;23;20213;-82
2023/01/29 10:11:21;;;;;;;7.53;6.30;;;;;;;-0.36;100.00;100384.13;6179991;23;20216;-82
2023/01/29 10:14:13;;;;;;;7.33;6.10;;;;;;;-0.21;100.00;100383.66;6230476;23;20217;-82
2023/01/29 10:16:56;;;;;;;7.47;6.43;;;;;;;-0.40;100.00;100382.75;6202579;23;20202;-83
2023/01/29 10:19:42;;;;;;;8.70;5.87;;;;;;;-0.49;100.00;100369.41;6203906;23;20202;-83
2023/01/29 10:22:44;;;;;;;8.13;6.17;;;;;;;-0.20;100.00;100366.06;6174321;23;20206;-82
2023/01/29 10:25:19;;;;;;;8.57;6.57;;;;;;;-0.11;100.00;100368.75;6132679;23;20229;-82
2023/01/29 10:27:55;;;;;;;7.73;6.30;;;;;;;-0.46;100.00;100363.88;6211711;23;20209;-82
2023/01/29 10:30:40;;;;;;;8.00;6.40;;;;;;;-0.55;100.00;100367.28;6209335;23;20205;-82
2023/01/29 10:33:17;;;;;;;7.40;6.23;;;;;;;-0.33;100.00;100368.09;6189761;23;20205;-82
2023/01/29 10:35:51;;;;;;;8.63;6.57;;;;;;;-0.31;100.00;100361.72;6207514;23;20209;-82
2023/01/29 10:38:44;;;;;;;6.37;5.73;;;;;;;-0.55;100.00;100363.81;6196556;23;20211;-83
2023/01/29 10:41:24;;;;;;;7.50;6.10;;;;;;;-0.72;100.00;100361.78;6163310;23;20216;-88
2023/01/29 10:44:13;;;;;;;7.07;6.23;;;;;;;-0.29;100.00;100353.69;6179956;23;20218;-83
2023/01/29 10:51:18;;;;;;;8.87;6.70;;;;;;;-0.37;100.00;100340.38;6134166;23;20197;-83
2023/01/29 10:54:13;;;;;;;9.77;6.60;;;;;;;-0.51;100.00;100333.63;6151396;23;20216;-83
2023/01/29 10:57:06;;;;;;;7.17;6.10;;;;;;;-0.41;100.00;100331.03;6151393;23;20202;-86
2023/01/29 10:59:53;;;;;;;8.50;7.23;;;;;;;-0.45;100.00;100323.41;6143838;23;20215;-89
2023/01/29 11:05:37;;;;;;;9.37;7.33;;;;;;;-0.78;100.00;100314.94;6206244;23;20206;-91
2023/01/29 11:08:27;;;;;;;8.40;6.90;;;;;;;-0.81;100.00;100321.31;6181654;23;21350;-90
2023/01/29 11:11:11;;;;;;;8.57;6.90;;;;;;;-0.97;100.00;100320.94;6175936;23;20663;-88
2023/01/29 11:14:13;;;;;;;8.03;7.20;;;;;;;-0.63;100.00;100311.00;6180530;23;20237;-84
2023/01/29 11:17:04;;;;;;;7.37;6.57;;;;;;;-0.78;100.00;100305.25;6177423;23;20237;-91
2023/01/29 11:19:38;;;;;;;9.80;7.73;;;;;;;-0.82;100.00;100297.75;6178854;23;20206;-88
2023/01/29 11:22:22;;;;;;;15.23;11.73;;;;;;;-0.89;100.00;100300.09;6185823;23;20187;-84
2023/01/29 11:25:17;;;;;;;10.63;8.03;;;;;;;-0.93;100.00;100303.91;6172539;23;20189;-84
2023/01/29 11:28:00;;;;;;;20.83;16.93;;;;;;;-1.03;100.00;100290.75;6150717;23;20190;-89
2023/01/29 11:30:59;;;;;;;16.13;11.60;;;;;;;-0.65;100.00;100279.53;6099334;23;20217;-83
2023/01/29 11:34:31;;;;;;;33.47;22.03;;;;;;;-0.84;100.00;100284.72;6162337;23;20197;-82
2023/01/29 11:37:18;;;;;;;11.90;9.40;;;;;;;-0.56;100.00;100268.22;6178804;23;20212;-85
2023/01/29 12:08:31;;;;;;;9.90;7.93;;;;;;;-0.29;100.00;100195.69;6197044;23;20240;-90
2023/01/29 12:11:33;;;;;;;11.03;7.30;;;;;;;-0.62;100.00;100192.44;6181022;23;20206;-90
2023/01/29 12:14:21;;;;;;;10.53;7.90;;;;;;;-0.16;100.00;100198.91;6190722;23;20217;-90
2023/01/29 12:17:15;;;;;;;9.77;8.07;;;;;;;-0.60;100.00;100190.50;6198648;23;20237;-91
2023/01/29 12:19:48;;;;;;;11.03;8.27;;;;;;;-0.27;100.00;100183.22;6164178;23;20207;-91
2023/01/29 12:28:49;;;;;;;9.90;7.93;;;;;;;-0.33;100.00;100163.56;6218702;23;20201;-92
2023/01/29 12:31:35;;;;;;;10.33;8.20;;;;;;;-0.33;100.00;100157.47;6233932;23;20193;-85
2023/01/29 19:45:55;;;;;;;22.63;16.37;;;;;;;-4.66;100.00;100040.91;6262249;22;20204;-90
2023/01/29 19:48:42;;;;;;;25.25;21.75;;;;;;;-4.69;100.00;100017.63;6231253;22;20382;-90
2023/01/29 20:02:50;;;;;;;27.77;19.07;;;;;;;-4.74;100.00;100000.59;6250131;22;20211;-83
2023/01/29 20:08:32;;;;;;;30.60;21.63;;;;;;;-4.77;100.00;100000.84;6190380;23;20258;-91
2023/01/29 20:11:08;;;;;;;32.93;22.07;;;;;;;-4.83;100.00;99999.50;6194535;23;20217;-91
2023/01/29 20:13:53;;;;;;;29.60;20.93;;;;;;;-4.81;100.00;99991.56;6204503;23;20213;-89
2023/01/29 20:16:39;;;;;;;33.80;22.00;;;;;;;-4.84;100.00;99992.59;6167642;23;20252;-92
2023/01/29 20:19:21;;;;;;;42.43;28.23;;;;;;;-4.72;100.00;99996.94;6185757;23;20213;-91
2023/01/29 20:21:56;;;;;;;38.37;25.07;;;;;;;-4.71;100.00;100008.25;6190573;23;20230;-90
2023/01/29 20:24:41;;;;;;;49.87;31.50;;;;;;;-4.75;100.00;99997.16;6162937;23;20206;-92
2023/01/29 20:27:19;;;;;;;38.87;26.63;;;;;;;-4.77;100.00;100006.91;6194540;23;20260;-90
2023/01/29 20:29:55;;;;;;;37.80;25.67;;;;;;;-4.76;100.00;100010.34;6198418;23;20237;-90
2023/01/29 20:32:28;;;;;;;36.67;24.43;;;;;;;-4.92;100.00;100008.84;6177584;23;20198;-89
2023/01/29 20:35:09;;;;;;;40.53;26.03;;;;;;;-4.95;100.00;100009.09;6197407;23;20212;-91
2023/01/29 20:37:54;;;;;;;36.97;24.90;;;;;;;-5.01;100.00;100016.53;6172975;23;20210;-91
2023/01/29 20:40:33;;;;;;;75.97;45.37;;;;;;;-4.98;100.00;100016.31;6212810;23;20202;-89
2023/01/29 20:43:07;;;;;;;53.33;35.00;;;;;;;-5.04;100.00;100022.00;6196120;23;20237;-90
2023/01/29 20:45:49;;;;;;;39.63;25.37;;;;;;;-4.99;100.00;100019.84;6173347;23;20259;-90
2023/01/29 20:48:19;;;;;;;36.57;24.60;;;;;;;-5.08;100.00;100017.91;6168407;23;20210;-89
2023/01/29 20:50:52;;;;;;;40.70;27.47;;;;;;;-5.29;100.00;100015.09;6175703;23;20277;-90
2023/01/29 20:53:27;;;;;;;57.43;34.00;;;;;;;-5.34;100.00;100010.19;6211644;23;20212;-91
2023/01/29 20:56:02;;;;;;;70.83;44.17;;;;;;;-5.32;100.00;100004.88;6223905;23;20212;-90
2023/01/29 20:58:34;;;;;;;69.43;41.23;;;;;;;-5.38;100.00;100002.69;6225897;23;20212;-90
2023/01/29 21:01:07;;;;;;;81.27;46.77;;;;;;;-5.39;100.00;100004.47;6226278;23;20233;-90
2023/01/29 21:03:42;;;;;;;44.73;29.87;;;;;;;-5.36;100.00;99995.56;6201042;23;20292;-90
2023/01/29 21:06:15;;;;;;;70.10;42.50;;;;;;;-5.50;100.00;99991.31;6201639;23;20213;-90
2023/01/29 21:08:47;;;;;;;83.63;47.23;;;;;;;-5.46;100.00;100005.81;6225283;23;20201;-89
2023/01/29 21:11:19;;;;;;;74.03;45.63;;;;;;;-5.40;100.00;100004.56;6203301;23;20205;-89
2023/01/29 21:13:52;;;;;;;66.27;39.80;;;;;;;-5.41;100.00;99995.88;6190895;23;20212;-90
2023/01/29 21:16:24;;;;;;;53.80;33.17;;;;;;;-5.44;100.00;100000.50;6206793;23;20197;-90
2023/01/29 21:18:57;;;;;;;42.57;28.07;;;;;;;-5.45;100.00;100004.88;6205971;23;20206;-90
2023/01/29 21:21:26;;;;;;;36.23;25.00;;;;;;;-5.49;100.00;100003.44;6205905;23;20264;-88
2023/01/29 21:23:59;;;;;;;35.17;24.50;;;;;;;-5.55;100.00;100014.31;6190293;23;20233;-90
2023/01/29 21:26:30;;;;;;;38.37;25.30;;;;;;;-5.65;100.00;100002.03;6226876;23;20228;-89
2023/01/29 21:29:01;;;;;;;38.17;25.00;;;;;;;-5.69;100.00;100005.81;6202228;23;20262;-90
2023/01/29 21:31:32;;;;;;;36.17;24.53;;;;;;;-5.68;100.00;99992.63;6228423;23;20270;-90
2023/01/29 21:34:05;;;;;;;35.57;23.97;;;;;;;-5.69;100.00;100001.41;6227061;23;20213;-90
2023/01/29 21:36:38;;;;;;;36.80;23.57;;;;;;;-5.74;100.00;99998.31;6252986;23;20205;-90
2023/01/29 21:39:16;;;;;;;32.97;22.87;;;;;;;-5.73;100.00;100001.72;6249447;23;20206;-89
2023/01/29 21:44:36;;;;;;;35.57;22.90;;;;;;;-5.79;100.00;100005.63;6215046;23;20201;-91
2023/01/29 21:47:12;;;;;;;34.07;22.53;;;;;;;-5.82;100.00;99993.59;6210872;23;20236;-91
2023/01/29 21:49:42;;;;;;;33.33;22.50;;;;;;;-5.80;100.00;99996.94;6204415;23;20216;-89
2023/01/29 21:52:12;;;;;;;33.87;21.90;;;;;;;-5.86;100.00;100001.75;6225103;23;20212;-89
2023/01/29 21:54:47;;;;;;;31.97;21.93;;;;;;;-5.87;100.00;100002.72;6251366;23;20276;-90
2023/01/29 21:57:16;;;;;;;30.60;20.37;;;;;;;-5.86;100.00;100005.19;6206051;23;20217;-90
2023/01/29 21:59:45;;;;;;;30.43;20.97;;;;;;;-5.88;100.00;100004.50;6228269;23;20209;-90
2023/01/29 22:02:21;;;;;;;28.63;19.97;;;;;;;-6.07;100.00;99985.03;6227589;23;20209;-91
2023/01/29 22:04:52;;;;;;;30.37;20.70;;;;;;;-5.98;100.00;99997.44;6228992;23;20210;-90
2023/01/29 22:07:23;;;;;;;28.63;19.27;;;;;;;-6.06;100.00;99999.72;6204319;23;20207;-90
2023/01/29 22:09:52;;;;;;;29.07;20.13;;;;;;;-6.04;100.00;99992.63;6230471;23;20209;-89
2023/01/29 22:12:23;;;;;;;29.93;19.30;;;;;;;-6.13;100.00;99982.81;6232927;23;20217;-89
2023/01/29 22:14:53;;;;;;;29.10;19.47;;;;;;;-6.09;100.00;99977.28;6183997;23;20257;-89
2023/01/29 22:17:22;;;;;;;30.27;19.47;;;;;;;-6.10;100.00;99975.63;6206512;23;20205;-90
2023/01/29 22:19:52;;;;;;;30.67;19.40;;;;;;;-6.17;100.00;99970.94;6206623;23;20205;-89
2023/01/29 22:22:24;;;;;;;29.83;19.83;;;;;;;-6.22;100.00;99962.59;6182236;23;20525;-90
2023/01/29 22:24:53;;;;;;;32.60;20.10;;;;;;;-6.19;100.00;99965.81;6231480;23;20201;-90
2023/01/29 22:27:21;;;;;;;29.93;20.23;;;;;;;-6.19;100.00;99973.66;6205522;23;20209;-90
2023/01/29 22:29:52;;;;;;;29.50;19.37;;;;;;;-6.32;100.00;99952.81;6234033;23;20212;-91
2023/01/29 22:32:21;;;;;;;30.40;19.80;;;;;;;-6.36;100.00;99951.34;6182870;23;20256;-90
2023/01/29 22:34:52;;;;;;;34.30;22.33;;;;;;;-6.30;100.00;99963.13;6203490;23;20213;-90
2023/01/29 22:37:21;;;;;;;38.63;23.10;;;;;;;-6.28;100.00;99961.25;6206831;23;20206;-90
2023/01/29 22:39:49;;;;;;;35.07;22.93;;;;;;;-6.35;100.00;99949.56;6233024;23;20221;-90
2023/01/29 22:42:19;;;;;;;30.93;20.43;;;;;;;-6.33;100.00;99956.34;6229738;23;20209;-89
2023/01/29 22:44:47;;;;;;;31.20;20.90;;;;;;;-6.35;100.00;99958.25;6231477;23;20204;-91
2023/01/29 22:47:15;;;;;;;32.30;20.27;;;;;;;-6.32;100.00;99952.81;6228316;23;20682;-90
2023/01/29 22:49:44;;;;;;;31.97;20.53;;;;;;;-6.36;100.00;99947.91;6201136;23;20209;-90
2023/01/29 22:52:11;;;;;;;29.97;20.17;;;;;;;-6.55;100.00;99940.50;6201823;23;20236;-90
2023/01/29 22:54:40;;;;;;;32.17;21.10;;;;;;;-6.56;100.00;99922.34;6225393;23;20205;-90
2023/01/29 22:57:13;;;;;;;31.10;20.80;;;;;;;-6.58;100.00;99922.47;6199592;23;20209;-89
2023/01/29 22:59:39;;;;;;;32.00;19.70;;;;;;;-6.53;100.00;99920.34;6174004;23;20214;-89
2023/01/29 23:02:07;;;;;;;32.00;20.30;;;;;;;-6.56;100.00;99923.19;6196248;23;20242;-89
2023/01/29 23:04:35;;;;;;;32.03;20.17;;;;;;;-6.53;100.00;99922.97;6172666;23;20197;-89
2023/01/29 23:07:02;;;;;;;28.77;19.67;;;;;;;-6.48;100.00;99918.28;6172561;23;20206;-89
2023/01/29 23:09:29;;;;;;;31.13;21.57;;;;;;;-6.56;100.00;99912.75;6197366;23;20209;-89
2023/01/29 23:11:56;;;;;;;29.90;20.53;;;;;;;-6.70;100.00;99898.06;6196936;23;20232;-90
2023/01/29 23:14:23;;;;;;;38.57;24.13;;;;;;;-6.55;100.00;99900.56;6221744;23;20205;-90
2023/01/29 23:16:50;;;;;;;38.10;24.90;;;;;;;-6.62;100.00;99891.50;6196915;23;20222;-89
2023/01/29 23:19:16;;;;;;;34.83;23.20;;;;;;;-6.72;100.00;99878.28;6197742;23;20402;-89
2023/01/29 23:21:46;;;;;;;32.90;20.40;;;;;;;-6.67;100.00;99887.41;6197465;23;20685;-89
2023/01/29 23:24:14;;;;;;;33.40;20.83;;;;;;;-6.66;100.00;99880.44;6194703;23;20209;-90
2023/01/29 23:29:27;;;;;;;32.67;20.90;;;;;;;-6.71;100.00;99872.94;6201057;23;20213;-90
2023/01/29 23:31:54;;;;;;;28.60;19.07;;;;;;;-6.67;100.00;99876.16;6172438;23;20193;-88
2023/01/29 23:34:21;;;;;;;31.53;19.97;;;;;;;-6.65;100.00;99876.91;6170894;23;20220;-90
2023/01/29 23:36:48;;;;;;;35.27;21.77;;;;;;;-6.54;100.00;99870.97;6220843;23;20201;-88
2023/01/29 23:39:15;;;;;;;32.00;21.70;;;;;;;-6.56;100.00;99886.69;6196332;23;20205;-88
2023/01/29 23:41:43;;;;;;;32.23;21.93;;;;;;;-6.57;100.00;99887.63;6171092;23;20214;-90
2023/01/29 23:44:09;;;;;;;33.90;21.07;;;;;;;-6.68;100.00;99882.34;6195730;23;20216;-89
2023/01/29 23:46:36;;;;;;;29.00;18.83;;;;;;;-6.68;100.00;99884.94;6221034;23;20211;-89
2023/01/29 23:49:03;;;;;;;26.97;19.00;;;;;;;-6.69;100.00;99883.25;6171223;23;20212;-90
2023/01/29 23:51:31;;;;;;;32.10;19.23;;;;;;;-6.72;100.00;99880.88;6196137;23;20210;-89
2023/01/29 23:53:58;;;;;;;33.63;21.03;;;;;;;-6.73;100.00;99867.00;6220365;23;20213;-90
2023/01/29 23:56:25;;;;;;;37.83;23.93;;;;;;;-6.81;100.00;99871.88;6170379;23;20212;-89
2023/01/29 23:58:56;;;;;;;35.67;22.73;;;;;;;-6.72;100.00;99881.69;6195650;23;20224;-89
